sensor_id;sensor_type;location;lat;lon;timestamp;P1;durP1;ratioP1;P2;durP2;ratioP2
15402;SDS011;7799;53.478;10.170;2023-03-14T00:01:07;2.50;;;2.20;;
15402;SDS011;7799;53.478;10.170;2023-03-14T00:03:34;2.10;;;2.00;;
15402;SDS011;7799;53.478;10.170;2023-03-14T00:06:01;2.07;;;1.97;;
15402;SDS011;7799;53.478;10.170;2023-03-14T00:08:29;2.10;;;2.00;;
15402;SDS011;7799;53.478;10.170;2023-03-14T00:10:56;2.30;;;1.97;;
15402;SDS011;7799;53.478;10.170;2023-03-14T00:13:23;2.53;;;2.07;;
15402;SDS011;7799;53.478;10.170;2023-03-14T00:15:50;2.30;;;2.10;;
15402;SDS011;7799;53.478;10.170;2023-03-14T00:18:17;2.30;;;2.10;;
15402;SDS011;7799;53.478;10.170;2023-03-14T00:20:45;1.80;;;1.70;;
15402;SDS011;7799;53.478;10.170;2023-03-14T00:23:11;2.93;;;2.20;;
15402;SDS011;7799;53.478;10.170;2023-03-14T00:25:39;2.40;;;2.00;;
15402;SDS011;7799;53.478;10.170;2023-03-14T00:28:06;2.10;;;2.00;;
15402;SDS011;7799;53.478;10.170;2023-03-14T00:30:32;1.90;;;1.80;;
15402;SDS011;7799;53.478;10.170;2023-03-14T00:32:59;2.47;;;2.27;;
15402;SDS011;7799;53.478;10.170;2023-03-14T00:35:26;1.90;;;1.80;;
15402;SDS011;7799;53.478;10.170;2023-03-14T00:37:53;2.80;;;2.50;;
15402;SDS011;7799;53.478;10.170;2023-03-14T00:40:19;3.90;;;2.80;;
15402;SDS011;7799;53.478;10.170;2023-03-14T00:42:49;3.93;;;3.13;;
15402;SDS011;7799;53.478;10.170;2023-03-14T00:45:15;4.90;;;3.00;;
15402;SDS011;7799;53.478;10.170;2023-03-14T00:47:42;2.57;;;2.33;;
15402;SDS011;7799;53.478;10.170;2023-03-14T00:50:10;2.20;;;2.10;;
15402;SDS011;7799;53.478;10.170;2023-03-14T00:52:37;2.17;;;2.07;;
15402;SDS011;7799;53.478;10.170;2023-03-14T00:55:05;2.10;;;2.00;;
15402;SDS011;7799;53.478;10.170;2023-03-14T00:57:32;1.90;;;1.80;;
15402;SDS011;7799;53.478;10.170;2023-03-14T01:00:00;1.70;;;1.60;;
15402;SDS011;7799;53.478;10.170;2023-03-14T01:02:31;1.93;;;1.83;;
15402;SDS011;7799;53.478;10.170;2023-03-14T01:04:57;1.70;;;1.60;;
15402;SDS011;7799;53.478;10.170;2023-03-14T01:07:24;1.80;;;1.70;;
15402;SDS011;7799;53.478;10.170;2023-03-14T01:09:51;2.20;;;2.00;;
15402;SDS011;7799;53.478;10.170;2023-03-14T01:12:18;3.90;;;2.33;;
15402;SDS011;7799;53.478;10.170;2023-03-14T01:14:44;2.13;;;1.90;;
15402;SDS011;7799;53.478;10.170;2023-03-14T01:17:12;2.50;;;2.30;;
15402;SDS011;7799;53.478;10.170;2023-03-14T01:19:39;2.80;;;2.30;;
15402;SDS011;7799;53.478;10.170;2023-03-14T01:22:06;3.27;;;2.90;;
15402;SDS011;7799;53.478;10.170;2023-03-14T01:24:32;3.33;;;2.67;;
15402;SDS011;7799;53.478;10.170;2023-03-14T01:26:59;2.40;;;2.27;;
15402;SDS011;7799;53.478;10.170;2023-03-14T01:29:27;2.40;;;2.20;;
15402;SDS011;7799;53.478;10.170;2023-03-14T01:31:53;2.40;;;2.20;;
15402;SDS011;7799;53.478;10.170;2023-03-14T01:34:21;2.10;;;2.00;;
15402;SDS011;7799;53.478;10.170;2023-03-14T01:36:49;2.83;;;2.50;;
15402;SDS011;7799;53.478;10.170;2023-03-14T01:39:15;2.70;;;2.20;;
15402;SDS011;7799;53.478;10.170;2023-03-14T01:41:42;3.60;;;2.47;;
15402;SDS011;7799;53.478;10.170;2023-03-14T01:44:09;2.57;;;2.37;;
15402;SDS011;7799;53.478;10.170;2023-03-14T01:46:37;3.20;;;3.00;;
15402;SDS011;7799;53.478;10.170;2023-03-14T01:49:13;3.03;;;2.60;;
15402;SDS011;7799;53.478;10.170;2023-03-14T01:51:48;3.30;;;3.00;;
15402;SDS011;7799;53.478;10.170;2023-03-14T01:54:19;4.03;;;3.07;;
15402;SDS011;7799;53.478;10.170;2023-03-14T01:56:50;4.03;;;3.37;;
15402;SDS011;7799;53.478;10.170;2023-03-14T01:59:19;3.20;;;2.90;;
15402;SDS011;7799;53.478;10.170;2023-03-14T02:01:46;3.93;;;3.20;;
15402;SDS011;7799;53.478;10.170;2023-03-14T02:04:14;3.60;;;3.30;;
15402;SDS011;7799;53.478;10.170;2023-03-14T02:06:45;3.63;;;3.20;;
15402;SDS011;7799;53.478;10.170;2023-03-14T02:09:18;3.77;;;3.47;;
15402;SDS011;7799;53.478;10.170;2023-03-14T02:11:46;5.57;;;3.50;;
15402;SDS011;7799;53.478;10.170;2023-03-14T02:14:28;4.23;;;2.87;;
15402;SDS011;7799;53.478;10.170;2023-03-14T02:17:13;4.30;;;3.13;;
15402;SDS011;7799;53.478;10.170;2023-03-14T02:20:06;3.37;;;2.70;;
15402;SDS011;7799;53.478;10.170;2023-03-14T02:22:42;3.90;;;2.70;;
15402;SDS011;7799;53.478;10.170;2023-03-14T02:25:12;4.33;;;3.00;;
15402;SDS011;7799;53.478;10.170;2023-03-14T02:27:43;2.83;;;2.63;;
15402;SDS011;7799;53.478;10.170;2023-03-14T02:30:11;4.87;;;2.63;;
15402;SDS011;7799;53.478;10.170;2023-03-14T02:32:41;3.60;;;2.50;;
15402;SDS011;7799;53.478;10.170;2023-03-14T02:35:14;4.00;;;2.87;;
15402;SDS011;7799;53.478;10.170;2023-03-14T02:37:43;4.50;;;3.10;;
15402;SDS011;7799;53.478;10.170;2023-03-14T02:40:12;3.60;;;2.97;;
15402;SDS011;7799;53.478;10.170;2023-03-14T02:42:40;3.17;;;2.87;;
15402;SDS011;7799;53.478;10.170;2023-03-14T02:45:32;6.83;;;3.97;;
15402;SDS011;7799;53.478;10.170;2023-03-14T02:48:02;4.53;;;3.40;;
15402;SDS011;7799;53.478;10.170;2023-03-14T02:50:32;4.70;;;3.20;;
15402;SDS011;7799;53.478;10.170;2023-03-14T02:53:00;4.07;;;3.67;;
15402;SDS011;7799;53.478;10.170;2023-03-14T02:55:27;4.13;;;3.50;;
15402;SDS011;7799;53.478;10.170;2023-03-14T02:57:58;4.87;;;3.37;;
15402;SDS011;7799;53.478;10.170;2023-03-14T03:00:25;5.60;;;3.17;;
15402;SDS011;7799;53.478;10.170;2023-03-14T03:02:53;3.87;;;3.33;;
15402;SDS011;7799;53.478;10.170;2023-03-14T03:05:20;3.90;;;2.97;;
15402;SDS011;7799;53.478;10.170;2023-03-14T03:07:46;4.63;;;3.50;;
15402;SDS011;7799;53.478;10.170;2023-03-14T03:10:13;4.83;;;2.97;;
15402;SDS011;7799;53.478;10.170;2023-03-14T03:12:40;3.93;;;3.00;;
15402;SDS011;7799;53.478;10.170;2023-03-14T03:15:07;4.50;;;3.20;;
15402;SDS011;7799;53.478;10.170;2023-03-14T03:17:36;4.07;;;3.10;;
15402;SDS011;7799;53.478;10.170;2023-03-14T03:20:06;5.60;;;3.00;;
15402;SDS011;7799;53.478;10.170;2023-03-14T03:22:34;3.47;;;3.17;;
15402;SDS011;7799;53.478;10.170;2023-03-14T03:25:01;3.53;;;3.00;;
15402;SDS011;7799;53.478;10.170;2023-03-14T03:27:29;4.60;;;3.20;;
15402;SDS011;7799;53.478;10.170;2023-03-14T03:29:57;3.60;;;2.87;;
15402;SDS011;7799;53.478;10.170;2023-03-14T03:32:24;3.90;;;2.90;;
15402;SDS011;7799;53.478;10.170;2023-03-14T03:34:50;3.57;;;2.70;;
15402;SDS011;7799;53.478;10.170;2023-03-14T03:37:19;3.10;;;2.80;;
15402;SDS011;7799;53.478;10.170;2023-03-14T03:39:45;4.53;;;2.80;;
15402;SDS011;7799;53.478;10.170;2023-03-14T03:42:12;3.03;;;2.70;;
15402;SDS011;7799;53.478;10.170;2023-03-14T03:44:39;2.60;;;2.40;;
15402;SDS011;7799;53.478;10.170;2023-03-14T03:47:05;4.60;;;2.57;;
15402;SDS011;7799;53.478;10.170;2023-03-14T03:49:32;3.33;;;2.37;;
15402;SDS011;7799;53.478;10.170;2023-03-14T03:51:59;3.03;;;2.50;;
15402;SDS011;7799;53.478;10.170;2023-03-14T03:54:28;3.63;;;2.47;;
15402;SDS011;7799;53.478;10.170;2023-03-14T03:56:55;3.40;;;2.70;;
15402;SDS011;7799;53.478;10.170;2023-03-14T03:59:22;4.17;;;2.50;;
15402;SDS011;7799;53.478;10.170;2023-03-14T04:01:48;4.17;;;2.70;;
15402;SDS011;7799;53.478;10.170;2023-03-14T04:04:15;2.60;;;2.40;;
15402;SDS011;7799;53.478;10.170;2023-03-14T04:06:42;3.07;;;2.60;;
15402;SDS011;7799;53.478;10.170;2023-03-14T04:09:09;3.20;;;2.90;;
15402;SDS011;7799;53.478;10.170;2023-03-14T04:11:44;3.63;;;3.03;;
15402;SDS011;7799;53.478;10.170;2023-03-14T04:14:20;3.97;;;3.00;;
15402;SDS011;7799;53.478;10.170;2023-03-14T04:16:54;3.97;;;3.13;;
15402;SDS011;7799;53.478;10.170;2023-03-14T04:19:21;3.07;;;2.70;;
15402;SDS011;7799;53.478;10.170;2023-03-14T04:21:49;6.17;;;3.30;;
15402;SDS011;7799;53.478;10.170;2023-03-14T04:24:17;3.50;;;3.20;;
15402;SDS011;7799;53.478;10.170;2023-03-14T04:26:48;3.13;;;2.80;;
15402;SDS011;7799;53.478;10.170;2023-03-14T04:29:15;4.57;;;3.03;;
15402;SDS011;7799;53.478;10.170;2023-03-14T04:31:43;2.90;;;2.70;;
15402;SDS011;7799;53.478;10.170;2023-03-14T04:34:10;4.77;;;3.30;;
15402;SDS011;7799;53.478;10.170;2023-03-14T04:36:43;3.63;;;3.33;;
15402;SDS011;7799;53.478;10.170;2023-03-14T04:39:15;3.50;;;3.20;;
15402;SDS011;7799;53.478;10.170;2023-03-14T04:41:51;4.70;;;3.40;;
15402;SDS011;7799;53.478;10.170;2023-03-14T04:44:19;3.80;;;3.23;;
15402;SDS011;7799;53.478;10.170;2023-03-14T04:46:48;3.17;;;2.87;;
15402;SDS011;7799;53.478;10.170;2023-03-14T04:49:15;4.70;;;3.50;;
15402;SDS011;7799;53.478;10.170;2023-03-14T04:51:41;3.63;;;3.07;;
15402;SDS011;7799;53.478;10.170;2023-03-14T04:54:09;3.50;;;3.20;;
15402;SDS011;7799;53.478;10.170;2023-03-14T04:56:37;3.23;;;2.93;;
15402;SDS011;7799;53.478;10.170;2023-03-14T04:59:05;5.40;;;3.53;;
15402;SDS011;7799;53.478;10.170;2023-03-14T05:01:35;3.63;;;3.33;;
15402;SDS011;7799;53.478;10.170;2023-03-14T05:04:20;5.03;;;3.40;;
15402;SDS011;7799;53.478;10.170;2023-03-14T05:07:13;3.63;;;3.30;;
15402;SDS011;7799;53.478;10.170;2023-03-14T05:10:00;4.73;;;3.57;;
15402;SDS011;7799;53.478;10.170;2023-03-14T05:12:47;3.27;;;3.07;;
15402;SDS011;7799;53.478;10.170;2023-03-14T05:15:48;3.73;;;3.30;;
15402;SDS011;7799;53.478;10.170;2023-03-14T05:18:35;3.30;;;3.00;;
15402;SDS011;7799;53.478;10.170;2023-03-14T05:21:13;3.00;;;2.80;;
15402;SDS011;7799;53.478;10.170;2023-03-14T05:24:01;3.00;;;2.80;;
15402;SDS011;7799;53.478;10.170;2023-03-14T05:26:49;3.33;;;2.97;;
15402;SDS011;7799;53.478;10.170;2023-03-14T05:29:24;3.00;;;2.70;;
15402;SDS011;7799;53.478;10.170;2023-03-14T05:32:01;3.57;;;3.27;;
15402;SDS011;7799;53.478;10.170;2023-03-14T05:34:48;2.90;;;2.70;;
15402;SDS011;7799;53.478;10.170;2023-03-14T05:37:38;2.90;;;2.70;;
15402;SDS011;7799;53.478;10.170;2023-03-14T05:40:23;3.40;;;3.10;;
15402;SDS011;7799;53.478;10.170;2023-03-14T05:43:09;3.30;;;2.90;;
15402;SDS011;7799;53.478;10.170;2023-03-14T05:45:54;4.17;;;2.90;;
15402;SDS011;7799;53.478;10.170;2023-03-14T05:48:51;4.27;;;3.30;;
15402;SDS011;7799;53.478;10.170;2023-03-14T05:51:38;3.97;;;3.67;;
15402;SDS011;7799;53.478;10.170;2023-03-14T05:54:23;3.30;;;3.03;;
15402;SDS011;7799;53.478;10.170;2023-03-14T05:57:06;3.07;;;2.83;;
15402;SDS011;7799;53.478;10.170;2023-03-14T05:59:45;2.87;;;2.67;;
15402;SDS011;7799;53.478;10.170;2023-03-14T06:02:30;3.00;;;2.80;;
15402;SDS011;7799;53.478;10.170;2023-03-14T06:05:07;3.40;;;3.10;;
15402;SDS011;7799;53.478;10.170;2023-03-14T06:07:34;4.13;;;3.27;;
15402;SDS011;7799;53.478;10.170;2023-03-14T06:10:04;3.30;;;3.03;;
15402;SDS011;7799;53.478;10.170;2023-03-14T06:12:31;3.03;;;2.73;;
15402;SDS011;7799;53.478;10.170;2023-03-14T06:14:58;2.97;;;2.77;;
15402;SDS011;7799;53.478;10.170;2023-03-14T06:17:25;3.73;;;2.90;;
15402;SDS011;7799;53.478;10.170;2023-03-14T06:19:59;3.50;;;3.30;;
15402;SDS011;7799;53.478;10.170;2023-03-14T06:22:28;4.17;;;3.00;;
15402;SDS011;7799;53.478;10.170;2023-03-14T06:24:55;3.40;;;3.10;;
15402;SDS011;7799;53.478;10.170;2023-03-14T06:27:23;3.83;;;3.37;;
15402;SDS011;7799;53.478;10.170;2023-03-14T06:29:53;3.40;;;3.10;;
15402;SDS011;7799;53.478;10.170;2023-03-14T06:32:20;3.40;;;2.97;;
15402;SDS011;7799;53.478;10.170;2023-03-14T06:34:50;3.23;;;2.93;;
15402;SDS011;7799;53.478;10.170;2023-03-14T06:37:17;4.67;;;2.90;;
15402;SDS011;7799;53.478;10.170;2023-03-14T06:39:46;3.80;;;3.27;;
15402;SDS011;7799;53.478;10.170;2023-03-14T06:42:23;3.43;;;3.13;;
15402;SDS011;7799;53.478;10.170;2023-03-14T06:44:52;4.03;;;3.63;;
15402;SDS011;7799;53.478;10.170;2023-03-14T06:47:18;3.17;;;2.97;;
15402;SDS011;7799;53.478;10.170;2023-03-14T06:49:45;3.67;;;2.90;;
15402;SDS011;7799;53.478;10.170;2023-03-14T06:52:13;2.83;;;2.63;;
15402;SDS011;7799;53.478;10.170;2023-03-14T06:54:39;2.97;;;2.70;;
15402;SDS011;7799;53.478;10.170;2023-03-14T06:57:08;3.50;;;2.60;;
15402;SDS011;7799;53.478;10.170;2023-03-14T06:59:34;2.90;;;2.70;;
15402;SDS011;7799;53.478;10.170;2023-03-14T07:02:01;2.70;;;2.53;;
15402;SDS011;7799;53.478;10.170;2023-03-14T07:04:27;3.13;;;2.87;;
15402;SDS011;7799;53.478;10.170;2023-03-14T07:06:55;3.00;;;2.80;;
15402;SDS011;7799;53.478;10.170;2023-03-14T07:09:21;3.13;;;2.87;;
15402;SDS011;7799;53.478;10.170;2023-03-14T07:11:54;2.73;;;2.53;;
15402;SDS011;7799;53.478;10.170;2023-03-14T07:14:23;2.90;;;2.70;;
15402;SDS011;7799;53.478;10.170;2023-03-14T07:16:51;3.37;;;3.07;;
15402;SDS011;7799;53.478;10.170;2023-03-14T07:19:18;2.77;;;2.60;;
15402;SDS011;7799;53.478;10.170;2023-03-14T07:21:44;3.00;;;2.80;;
15402;SDS011;7799;53.478;10.170;2023-03-14T07:24:13;3.07;;;2.77;;
15402;SDS011;7799;53.478;10.170;2023-03-14T07:26:40;2.70;;;2.60;;
15402;SDS011;7799;53.478;10.170;2023-03-14T07:29:06;2.50;;;2.30;;
15402;SDS011;7799;53.478;10.170;2023-03-14T07:31:34;2.80;;;2.60;;
15402;SDS011;7799;53.478;10.170;2023-03-14T07:34:02;2.50;;;2.30;;
15402;SDS011;7799;53.478;10.170;2023-03-14T07:36:33;2.47;;;2.27;;
15402;SDS011;7799;53.478;10.170;2023-03-14T07:39:00;2.20;;;2.10;;
15402;SDS011;7799;53.478;10.170;2023-03-14T07:41:35;2.50;;;2.00;;
15402;SDS011;7799;53.478;10.170;2023-03-14T07:44:20;2.80;;;2.00;;
15402;SDS011;7799;53.478;10.170;2023-03-14T07:46:48;2.33;;;1.90;;
15402;SDS011;7799;53.478;10.170;2023-03-14T07:49:15;3.33;;;2.23;;
15402;SDS011;7799;53.478;10.170;2023-03-14T07:51:42;2.20;;;2.00;;
15402;SDS011;7799;53.478;10.170;2023-03-14T07:54:09;2.27;;;2.10;;
15402;SDS011;7799;53.478;10.170;2023-03-14T07:56:35;2.00;;;1.90;;
15402;SDS011;7799;53.478;10.170;2023-03-14T07:59:02;2.30;;;2.10;;
15402;SDS011;7799;53.478;10.170;2023-03-14T08:01:29;2.70;;;2.10;;
15402;SDS011;7799;53.478;10.170;2023-03-14T08:03:57;3.90;;;2.93;;
15402;SDS011;7799;53.478;10.170;2023-03-14T08:06:24;2.93;;;2.70;;
15402;SDS011;7799;53.478;10.170;2023-03-14T08:08:50;3.03;;;2.70;;
15402;SDS011;7799;53.478;10.170;2023-03-14T08:11:17;3.13;;;2.77;;
15402;SDS011;7799;53.478;10.170;2023-03-14T08:13:44;3.57;;;2.77;;
15402;SDS011;7799;53.478;10.170;2023-03-14T08:16:14;3.03;;;2.70;;
15402;SDS011;7799;53.478;10.170;2023-03-14T08:18:41;3.00;;;2.60;;
15402;SDS011;7799;53.478;10.170;2023-03-14T08:21:09;2.90;;;2.60;;
15402;SDS011;7799;53.478;10.170;2023-03-14T08:23:36;2.70;;;2.50;;
15402;SDS011;7799;53.478;10.170;2023-03-14T08:26:02;2.73;;;2.53;;
15402;SDS011;7799;53.478;10.170;2023-03-14T08:28:29;2.80;;;2.60;;
15402;SDS011;7799;53.478;10.170;2023-03-14T08:30:58;3.90;;;3.20;;
15402;SDS011;7799;53.478;10.170;2023-03-14T08:33:26;4.10;;;3.70;;
15402;SDS011;7799;53.478;10.170;2023-03-14T08:35:54;4.00;;;3.70;;
15402;SDS011;7799;53.478;10.170;2023-03-14T08:38:22;3.50;;;3.30;;
15402;SDS011;7799;53.478;10.170;2023-03-14T08:40:50;4.03;;;3.60;;
15402;SDS011;7799;53.478;10.170;2023-03-14T08:43:21;6.37;;;4.40;;
15402;SDS011;7799;53.478;10.170;2023-03-14T08:45:48;4.70;;;4.30;;
15402;SDS011;7799;53.478;10.170;2023-03-14T08:48:15;5.23;;;4.73;;
15402;SDS011;7799;53.478;10.170;2023-03-14T08:50:41;6.30;;;5.23;;
15402;SDS011;7799;53.478;10.170;2023-03-14T08:53:08;6.33;;;5.30;;
15402;SDS011;7799;53.478;10.170;2023-03-14T08:55:36;6.03;;;5.53;;
15402;SDS011;7799;53.478;10.170;2023-03-14T08:58:03;6.77;;;5.50;;
15402;SDS011;7799;53.478;10.170;2023-03-14T09:00:30;5.33;;;4.90;;
15402;SDS011;7799;53.478;10.170;2023-03-14T09:02:56;5.10;;;4.70;;
15402;SDS011;7799;53.478;10.170;2023-03-14T09:05:23;5.30;;;4.80;;
15402;SDS011;7799;53.478;10.170;2023-03-14T09:07:50;5.23;;;4.37;;
15402;SDS011;7799;53.478;10.170;2023-03-14T09:10:16;4.87;;;4.47;;
15402;SDS011;7799;53.478;10.170;2023-03-14T09:12:44;4.43;;;4.13;;
15402;SDS011;7799;53.478;10.170;2023-03-14T09:15:11;4.73;;;4.37;;
15402;SDS011;7799;53.478;10.170;2023-03-14T09:17:38;5.13;;;4.60;;
15402;SDS011;7799;53.478;10.170;2023-03-14T09:20:05;5.80;;;4.53;;
15402;SDS011;7799;53.478;10.170;2023-03-14T09:22:34;5.50;;;4.33;;
15402;SDS011;7799;53.478;10.170;2023-03-14T09:25:00;4.73;;;4.33;;
15402;SDS011;7799;53.478;10.170;2023-03-14T09:27:27;4.70;;;4.20;;
15402;SDS011;7799;53.478;10.170;2023-03-14T09:29:55;4.53;;;4.03;;
15402;SDS011;7799;53.478;10.170;2023-03-14T09:32:22;4.23;;;3.83;;
15402;SDS011;7799;53.478;10.170;2023-03-14T09:34:49;4.10;;;3.80;;
15402;SDS011;7799;53.478;10.170;2023-03-14T09:37:15;4.27;;;3.87;;
15402;SDS011;7799;53.478;10.170;2023-03-14T09:39:42;3.80;;;3.50;;
15402;SDS011;7799;53.478;10.170;2023-03-14T09:42:19;3.70;;;3.43;;
15402;SDS011;7799;53.478;10.170;2023-03-14T09:44:51;3.00;;;2.80;;
15402;SDS011;7799;53.478;10.170;2023-03-14T09:47:21;3.50;;;3.30;;
15402;SDS011;7799;53.478;10.170;2023-03-14T09:49:49;3.93;;;3.50;;
15402;SDS011;7799;53.478;10.170;2023-03-14T09:52:17;3.13;;;2.90;;
15402;SDS011;7799;53.478;10.170;2023-03-14T09:54:46;3.57;;;2.93;;
15402;SDS011;7799;53.478;10.170;2023-03-14T09:57:14;3.40;;;3.10;;
15402;SDS011;7799;53.478;10.170;2023-03-14T09:59:43;3.83;;;3.30;;
15402;SDS011;7799;53.478;10.170;2023-03-14T10:02:13;3.37;;;3.03;;
15402;SDS011;7799;53.478;10.170;2023-03-14T10:04:42;3.50;;;3.20;;
15402;SDS011;7799;53.478;10.170;2023-03-14T10:07:11;3.40;;;3.10;;
15402;SDS011;7799;53.478;10.170;2023-03-14T10:09:40;3.40;;;3.10;;
15402;SDS011;7799;53.478;10.170;2023-03-14T10:12:07;5.43;;;3.83;;
15402;SDS011;7799;53.478;10.170;2023-03-14T10:14:35;4.20;;;3.63;;
15402;SDS011;7799;53.478;10.170;2023-03-14T10:17:06;2.60;;;2.20;;
15402;SDS011;7799;53.478;10.170;2023-03-14T10:19:35;2.40;;;1.70;;
15402;SDS011;7799;53.478;10.170;2023-03-14T10:22:03;1.90;;;1.20;;
15402;SDS011;7799;53.478;10.170;2023-03-14T10:24:31;1.20;;;1.10;;
15402;SDS011;7799;53.478;10.170;2023-03-14T10:26:59;1.27;;;1.17;;
15402;SDS011;7799;53.478;10.170;2023-03-14T10:29:27;1.20;;;1.10;;
15402;SDS011;7799;53.478;10.170;2023-03-14T10:31:56;1.00;;;1.00;;
15402;SDS011;7799;53.478;10.170;2023-03-14T10:34:26;1.20;;;1.10;;
15402;SDS011;7799;53.478;10.170;2023-03-14T10:36:55;1.40;;;1.20;;
15402;SDS011;7799;53.478;10.170;2023-03-14T10:39:36;1.83;;;1.30;;
15402;SDS011;7799;53.478;10.170;2023-03-14T10:42:11;1.17;;;1.00;;
15402;SDS011;7799;53.478;10.170;2023-03-14T10:44:41;1.40;;;1.30;;
15402;SDS011;7799;53.478;10.170;2023-03-14T10:47:15;1.77;;;1.47;;
15402;SDS011;7799;53.478;10.170;2023-03-14T10:49:44;1.30;;;1.20;;
15402;SDS011;7799;53.478;10.170;2023-03-14T10:52:17;1.23;;;1.23;;
15402;SDS011;7799;53.478;10.170;2023-03-14T10:54:49;1.20;;;1.10;;
15402;SDS011;7799;53.478;10.170;2023-03-14T10:57:21;1.10;;;1.10;;
15402;SDS011;7799;53.478;10.170;2023-03-14T10:59:48;1.10;;;1.10;;
15402;SDS011;7799;53.478;10.170;2023-03-14T11:02:20;1.10;;;1.00;;
15402;SDS011;7799;53.478;10.170;2023-03-14T11:04:56;1.53;;;1.10;;
15402;SDS011;7799;53.478;10.170;2023-03-14T11:07:30;1.00;;;1.00;;
15402;SDS011;7799;53.478;10.170;2023-03-14T11:10:02;1.23;;;0.90;;
15402;SDS011;7799;53.478;10.170;2023-03-14T11:12:39;0.97;;;0.97;;
15402;SDS011;7799;53.478;10.170;2023-03-14T11:15:12;0.97;;;0.97;;
15402;SDS011;7799;53.478;10.170;2023-03-14T11:17:44;1.00;;;1.00;;
15402;SDS011;7799;53.478;10.170;2023-03-14T11:23:03;1.10;;;1.10;;
15402;SDS011;7799;53.478;10.170;2023-03-14T11:25:38;1.13;;;1.00;;
15402;SDS011;7799;53.478;10.170;2023-03-14T11:28:14;1.57;;;1.20;;
15402;SDS011;7799;53.478;10.170;2023-03-14T11:30:46;1.17;;;1.10;;
15402;SDS011;7799;53.478;10.170;2023-03-14T11:33:17;1.20;;;1.10;;
15402;SDS011;7799;53.478;10.170;2023-03-14T11:35:47;1.53;;;1.20;;
15402;SDS011;7799;53.478;10.170;2023-03-14T11:38:19;1.63;;;1.10;;
15402;SDS011;7799;53.478;10.170;2023-03-14T11:40:54;1.47;;;1.37;;
15402;SDS011;7799;53.478;10.170;2023-03-14T11:43:24;1.40;;;1.30;;
15402;SDS011;7799;53.478;10.170;2023-03-14T11:45:54;1.40;;;1.30;;
15402;SDS011;7799;53.478;10.170;2023-03-14T11:48:25;1.20;;;1.10;;
15402;SDS011;7799;53.478;10.170;2023-03-14T11:50:57;1.83;;;1.20;;
15402;SDS011;7799;53.478;10.170;2023-03-14T11:53:29;1.47;;;1.17;;
15402;SDS011;7799;53.478;10.170;2023-03-14T11:56:04;1.90;;;1.20;;
15402;SDS011;7799;53.478;10.170;2023-03-14T11:58:37;1.47;;;1.20;;
15402;SDS011;7799;53.478;10.170;2023-03-14T12:01:06;2.73;;;1.50;;
15402;SDS011;7799;53.478;10.170;2023-03-14T12:03:36;1.73;;;1.20;;
15402;SDS011;7799;53.478;10.170;2023-03-14T12:06:09;1.27;;;1.27;;
15402;SDS011;7799;53.478;10.170;2023-03-14T12:08:44;1.40;;;1.30;;
15402;SDS011;7799;53.478;10.170;2023-03-14T12:11:16;1.53;;;1.30;;
15402;SDS011;7799;53.478;10.170;2023-03-14T12:13:46;1.97;;;1.40;;
15402;SDS011;7799;53.478;10.170;2023-03-14T12:16:20;1.20;;;1.20;;
15402;SDS011;7799;53.478;10.170;2023-03-14T12:18:56;2.83;;;1.40;;
15402;SDS011;7799;53.478;10.170;2023-03-14T12:21:24;1.80;;;1.20;;
15402;SDS011;7799;53.478;10.170;2023-03-14T12:24:14;2.43;;;1.77;;
15402;SDS011;7799;53.478;10.170;2023-03-14T12:26:48;2.03;;;1.40;;
15402;SDS011;7799;53.478;10.170;2023-03-14T12:29:18;3.17;;;2.03;;
15402;SDS011;7799;53.478;10.170;2023-03-14T12:31:45;2.23;;;1.73;;
15402;SDS011;7799;53.478;10.170;2023-03-14T12:34:25;2.27;;;1.63;;
15402;SDS011;7799;53.478;10.170;2023-03-14T12:36:56;2.37;;;1.60;;
15402;SDS011;7799;53.478;10.170;2023-03-14T12:39:31;2.13;;;1.70;;
15402;SDS011;7799;53.478;10.170;2023-03-14T12:42:03;3.10;;;1.60;;
15402;SDS011;7799;53.478;10.170;2023-03-14T12:44:44;1.97;;;1.80;;
15402;SDS011;7799;53.478;10.170;2023-03-14T12:50:25;2.97;;;1.90;;
15402;SDS011;7799;53.478;10.170;2023-03-14T12:55:43;4.13;;;1.87;;
15402;SDS011;7799;53.478;10.170;2023-03-14T12:58:15;1.97;;;1.80;;
15402;SDS011;7799;53.478;10.170;2023-03-14T13:00:43;5.07;;;2.17;;
15402;SDS011;7799;53.478;10.170;2023-03-14T13:03:17;5.00;;;1.90;;
15402;SDS011;7799;53.478;10.170;2023-03-14T13:05:54;2.57;;;1.97;;
15402;SDS011;7799;53.478;10.170;2023-03-14T13:08:32;3.73;;;1.90;;
15402;SDS011;7799;53.478;10.170;2023-03-14T13:11:04;4.20;;;2.00;;
15402;SDS011;7799;53.478;10.170;2023-03-14T13:13:35;5.43;;;2.20;;
15402;SDS011;7799;53.478;10.170;2023-03-14T13:16:04;6.33;;;2.67;;
15402;SDS011;7799;53.478;10.170;2023-03-14T13:18:34;2.00;;;1.80;;
15402;SDS011;7799;53.478;10.170;2023-03-14T13:21:02;2.43;;;2.00;;
15402;SDS011;7799;53.478;10.170;2023-03-14T13:23:30;5.40;;;2.40;;
15402;SDS011;7799;53.478;10.170;2023-03-14T13:25:59;5.67;;;2.53;;
15402;SDS011;7799;53.478;10.170;2023-03-14T13:28:26;3.50;;;2.40;;
15402;SDS011;7799;53.478;10.170;2023-03-14T13:30:56;3.83;;;2.50;;
15402;SDS011;7799;53.478;10.170;2023-03-14T13:33:24;3.20;;;2.70;;
15402;SDS011;7799;53.478;10.170;2023-03-14T13:35:54;3.97;;;2.80;;
15402;SDS011;7799;53.478;10.170;2023-03-14T13:38:22;5.33;;;2.70;;
15402;SDS011;7799;53.478;10.170;2023-03-14T13:40:50;2.97;;;2.63;;
15402;SDS011;7799;53.478;10.170;2023-03-14T13:43:18;2.90;;;2.50;;
15402;SDS011;7799;53.478;10.170;2023-03-14T13:45:53;5.70;;;3.23;;
15402;SDS011;7799;53.478;10.170;2023-03-14T13:48:25;5.97;;;3.20;;
15402;SDS011;7799;53.478;10.170;2023-03-14T13:50:54;6.80;;;2.83;;
15402;SDS011;7799;53.478;10.170;2023-03-14T13:53:22;4.57;;;2.23;;
15402;SDS011;7799;53.478;10.170;2023-03-14T13:55:50;3.93;;;2.17;;
15402;SDS011;7799;53.478;10.170;2023-03-14T13:58:21;4.33;;;2.17;;
15402;SDS011;7799;53.478;10.170;2023-03-14T14:00:58;3.33;;;2.00;;
15402;SDS011;7799;53.478;10.170;2023-03-14T14:03:26;6.63;;;1.90;;
15402;SDS011;7799;53.478;10.170;2023-03-14T14:05:54;6.17;;;2.00;;
15402;SDS011;7799;53.478;10.170;2023-03-14T14:08:22;2.93;;;2.00;;
15402;SDS011;7799;53.478;10.170;2023-03-14T14:10:49;4.00;;;2.33;;
15402;SDS011;7799;53.478;10.170;2023-03-14T14:13:17;4.60;;;2.30;;
15402;SDS011;7799;53.478;10.170;2023-03-14T14:15:47;4.67;;;1.77;;
15402;SDS011;7799;53.478;10.170;2023-03-14T14:18:17;5.23;;;2.30;;
15402;SDS011;7799;53.478;10.170;2023-03-14T14:20:46;5.30;;;2.50;;
15402;SDS011;7799;53.478;10.170;2023-03-14T14:23:14;4.33;;;2.13;;
15402;SDS011;7799;53.478;10.170;2023-03-14T14:25:43;5.10;;;2.03;;
15402;SDS011;7799;53.478;10.170;2023-03-14T14:28:17;6.13;;;2.27;;
15402;SDS011;7799;53.478;10.170;2023-03-14T14:30:47;4.13;;;1.70;;
15402;SDS011;7799;53.478;10.170;2023-03-14T14:33:37;5.10;;;1.80;;
15402;SDS011;7799;53.478;10.170;2023-03-14T14:36:12;6.20;;;2.20;;
15402;SDS011;7799;53.478;10.170;2023-03-14T14:38:41;5.30;;;1.73;;
15402;SDS011;7799;53.478;10.170;2023-03-14T14:41:10;3.33;;;1.97;;
15402;SDS011;7799;53.478;10.170;2023-03-14T14:43:38;4.33;;;1.90;;
15402;SDS011;7799;53.478;10.170;2023-03-14T14:46:06;2.33;;;1.70;;
15402;SDS011;7799;53.478;10.170;2023-03-14T14:48:37;4.93;;;1.90;;
15402;SDS011;7799;53.478;10.170;2023-03-14T14:51:04;6.37;;;2.13;;
15402;SDS011;7799;53.478;10.170;2023-03-14T14:53:35;5.87;;;2.03;;
15402;SDS011;7799;53.478;10.170;2023-03-14T14:56:04;4.73;;;1.73;;
15402;SDS011;7799;53.478;10.170;2023-03-14T14:58:33;5.07;;;1.73;;
15402;SDS011;7799;53.478;10.170;2023-03-14T15:01:03;4.00;;;1.70;;
15402;SDS011;7799;53.478;10.170;2023-03-14T15:03:32;3.40;;;1.53;;
15402;SDS011;7799;53.478;10.170;2023-03-14T15:06:02;3.60;;;1.50;;
15402;SDS011;7799;53.478;10.170;2023-03-14T15:08:30;4.40;;;1.50;;
15402;SDS011;7799;53.478;10.170;2023-03-14T15:10:57;3.40;;;1.40;;
15402;SDS011;7799;53.478;10.170;2023-03-14T15:13:24;4.73;;;1.53;;
15402;SDS011;7799;53.478;10.170;2023-03-14T15:15:50;5.37;;;1.43;;